sensor_id;sensor_type;location;lat;lon;timestamp;temperature;humidity
21035;DHT22;10676;50.848;3.272;2023-06-14T00:01:50;18.50;92.70
21035;DHT22;10676;50.848;3.272;2023-06-14T00:04:16;18.50;93.20
21035;DHT22;10676;50.848;3.272;2023-06-14T00:06:44;18.40;93.90
21035;DHT22;10676;50.848;3.272;2023-06-14T00:09:16;18.30;94.50
21035;DHT22;10676;50.848;3.272;2023-06-14T00:11:43;18.20;95.30
21035;DHT22;10676;50.848;3.272;2023-06-14T00:14:09;18.20;96.30
21035;DHT22;10676;50.848;3.272;2023-06-14T00:16:34;18.20;97.10
21035;DHT22;10676;50.848;3.272;2023-06-14T00:19:01;18.30;97.90
21035;DHT22;10676;50.848;3.272;2023-06-14T00:21:30;18.30;98.70
21035;DHT22;10676;50.848;3.272;2023-06-14T00:23:57;18.30;99.30
21035;DHT22;10676;50.848;3.272;2023-06-14T00:26:23;18.30;99.90
21035;DHT22;10676;50.848;3.272;2023-06-14T00:28:49;18.30;99.90
21035;DHT22;10676;50.848;3.272;2023-06-14T00:31:15;18.30;99.90
21035;DHT22;10676;50.848;3.272;2023-06-14T00:33:40;18.30;99.90
21035;DHT22;10676;50.848;3.272;2023-06-14T00:36:06;18.30;99.90
21035;DHT22;10676;50.848;3.272;2023-06-14T00:38:32;18.30;99.90
21035;DHT22;10676;50.848;3.272;2023-06-14T00:40:58;18.30;99.90
21035;DHT22;10676;50.848;3.272;2023-06-14T00:43:23;18.30;99.90
21035;DHT22;10676;50.848;3.272;2023-06-14T00:45:49;18.30;99.90
21035;DHT22;10676;50.848;3.272;2023-06-14T00:48:17;18.30;99.90
21035;DHT22;10676;50.848;3.272;2023-06-14T00:50:43;18.20;99.90
21035;DHT22;10676;50.848;3.272;2023-06-14T00:53:14;18.20;99.90
21035;DHT22;10676;50.848;3.272;2023-06-14T00:55:43;18.10;99.90
21035;DHT22;10676;50.848;3.272;2023-06-14T00:58:10;18.00;99.90
21035;DHT22;10676;50.848;3.272;2023-06-14T01:00:36;17.90;99.90
21035;DHT22;10676;50.848;3.272;2023-06-14T01:03:02;17.80;99.90
21035;DHT22;10676;50.848;3.272;2023-06-14T01:05:29;17.70;99.90
21035;DHT22;10676;50.848;3.272;2023-06-14T01:10:53;17.40;99.90
21035;DHT22;10676;50.848;3.272;2023-06-14T01:13:28;17.30;99.90
21035;DHT22;10676;50.848;3.272;2023-06-14T01:15:55;17.20;99.90
21035;DHT22;10676;50.848;3.272;2023-06-14T01:18:22;17.10;99.90
21035;DHT22;10676;50.848;3.272;2023-06-14T01:20:50;17.00;99.90
21035;DHT22;10676;50.848;3.272;2023-06-14T01:23:20;17.00;99.90
21035;DHT22;10676;50.848;3.272;2023-06-14T01:25:46;16.90;99.90
21035;DHT22;10676;50.848;3.272;2023-06-14T01:28:13;16.80;99.90
21035;DHT22;10676;50.848;3.272;2023-06-14T01:30:44;16.70;99.90
21035;DHT22;10676;50.848;3.272;2023-06-14T01:33:17;16.60;99.90
21035;DHT22;10676;50.848;3.272;2023-06-14T01:35:49;16.50;99.90
21035;DHT22;10676;50.848;3.272;2023-06-14T01:38:17;16.30;99.90
21035;DHT22;10676;50.848;3.272;2023-06-14T01:40:45;16.20;99.90
21035;DHT22;10676;50.848;3.272;2023-06-14T01:43:13;16.10;99.90
21035;DHT22;10676;50.848;3.272;2023-06-14T01:45:40;16.00;99.90
21035;DHT22;10676;50.848;3.272;2023-06-14T01:48:07;15.90;99.90
21035;DHT22;10676;50.848;3.272;2023-06-14T01:50:33;15.80;99.90
21035;DHT22;10676;50.848;3.272;2023-06-14T01:52:59;15.70;99.90
21035;DHT22;10676;50.848;3.272;2023-06-14T01:55:25;15.60;99.90
21035;DHT22;10676;50.848;3.272;2023-06-14T01:57:51;15.60;99.90
21035;DHT22;10676;50.848;3.272;2023-06-14T02:00:17;15.60;99.90
21035;DHT22;10676;50.848;3.272;2023-06-14T02:02:44;15.60;99.90
21035;DHT22;10676;50.848;3.272;2023-06-14T02:05:11;15.60;99.90
21035;DHT22;10676;50.848;3.272;2023-06-14T02:07:37;15.50;99.90
21035;DHT22;10676;50.848;3.272;2023-06-14T02:10:03;15.50;99.90
21035;DHT22;10676;50.848;3.272;2023-06-14T02:12:29;15.40;99.90
21035;DHT22;10676;50.848;3.272;2023-06-14T02:14:55;15.30;99.90
21035;DHT22;10676;50.848;3.272;2023-06-14T02:17:22;15.30;99.90
21035;DHT22;10676;50.848;3.272;2023-06-14T02:19:48;15.20;99.90
21035;DHT22;10676;50.848;3.272;2023-06-14T02:22:15;15.20;99.90
21035;DHT22;10676;50.848;3.272;2023-06-14T02:24:41;15.20;99.90
21035;DHT22;10676;50.848;3.272;2023-06-14T02:27:07;15.20;99.90
21035;DHT22;10676;50.848;3.272;2023-06-14T02:29:33;15.20;99.90
21035;DHT22;10676;50.848;3.272;2023-06-14T02:31:59;15.30;99.90
21035;DHT22;10676;50.848;3.272;2023-06-14T02:34:25;15.40;99.90
21035;DHT22;10676;50.848;3.272;2023-06-14T02:36:50;15.40;99.90
21035;DHT22;10676;50.848;3.272;2023-06-14T02:39:18;15.50;99.90
21035;DHT22;10676;50.848;3.272;2023-06-14T02:41:46;15.50;99.90
21035;DHT22;10676;50.848;3.272;2023-06-14T02:44:13;15.50;99.90
21035;DHT22;10676;50.848;3.272;2023-06-14T02:46:39;15.50;99.90
21035;DHT22;10676;50.848;3.272;2023-06-14T02:49:05;15.40;99.90
21035;DHT22;10676;50.848;3.272;2023-06-14T02:51:30;15.40;99.90
21035;DHT22;10676;50.848;3.272;2023-06-14T02:53:56;15.40;99.90
21035;DHT22;10676;50.848;3.272;2023-06-14T02:56:22;15.50;99.90
21035;DHT22;10676;50.848;3.272;2023-06-14T02:58:48;15.50;99.90
21035;DHT22;10676;50.848;3.272;2023-06-14T03:01:14;15.60;99.90
21035;DHT22;10676;50.848;3.272;2023-06-14T03:03:40;15.70;99.90
21035;DHT22;10676;50.848;3.272;2023-06-14T03:06:05;15.70;99.90
21035;DHT22;10676;50.848;3.272;2023-06-14T03:08:33;15.80;99.90
21035;DHT22;10676;50.848;3.272;2023-06-14T03:11:04;15.80;99.90
21035;DHT22;10676;50.848;3.272;2023-06-14T03:13:37;15.90;99.90
21035;DHT22;10676;50.848;3.272;2023-06-14T03:16:04;15.90;99.90
21035;DHT22;10676;50.848;3.272;2023-06-14T03:18:30;16.00;99.90
21035;DHT22;10676;50.848;3.272;2023-06-14T03:20:58;16.00;99.90
21035;DHT22;10676;50.848;3.272;2023-06-14T03:23:24;16.10;99.90
21035;DHT22;10676;50.848;3.272;2023-06-14T03:25:50;16.10;99.90
21035;DHT22;10676;50.848;3.272;2023-06-14T03:28:17;16.20;99.90
21035;DHT22;10676;50.848;3.272;2023-06-14T03:30:43;16.30;99.90
21035;DHT22;10676;50.848;3.272;2023-06-14T03:33:08;16.30;99.90
21035;DHT22;10676;50.848;3.272;2023-06-14T03:35:34;16.40;99.90
21035;DHT22;10676;50.848;3.272;2023-06-14T03:38:00;16.40;99.90
21035;DHT22;10676;50.848;3.272;2023-06-14T03:40:26;16.40;99.90
21035;DHT22;10676;50.848;3.272;2023-06-14T03:42:54;16.50;99.90
21035;DHT22;10676;50.848;3.272;2023-06-14T03:45:20;16.50;99.90
21035;DHT22;10676;50.848;3.272;2023-06-14T03:47:46;16.50;99.90
21035;DHT22;10676;50.848;3.272;2023-06-14T03:50:12;16.60;99.90
21035;DHT22;10676;50.848;3.272;2023-06-14T03:52:38;16.60;99.90
21035;DHT22;10676;50.848;3.272;2023-06-14T03:55:04;16.60;99.90
21035;DHT22;10676;50.848;3.272;2023-06-14T03:57:30;16.60;99.90
21035;DHT22;10676;50.848;3.272;2023-06-14T03:59:56;16.70;99.90
21035;DHT22;10676;50.848;3.272;2023-06-14T04:02:22;16.80;99.90
21035;DHT22;10676;50.848;3.272;2023-06-14T04:04:48;16.80;99.90
21035;DHT22;10676;50.848;3.272;2023-06-14T04:07:15;16.90;99.90
21035;DHT22;10676;50.848;3.272;2023-06-14T04:09:45;17.00;99.90
21035;DHT22;10676;50.848;3.272;2023-06-14T04:12:10;17.20;99.90
21035;DHT22;10676;50.848;3.272;2023-06-14T04:14:39;17.40;99.90
21035;DHT22;10676;50.848;3.272;2023-06-14T04:17:05;17.70;99.90
21035;DHT22;10676;50.848;3.272;2023-06-14T04:19:31;18.00;99.90
21035;DHT22;10676;50.848;3.272;2023-06-14T04:21:58;18.30;99.90
21035;DHT22;10676;50.848;3.272;2023-06-14T04:24:26;18.60;99.90
21035;DHT22;10676;50.848;3.272;2023-06-14T04:26:54;18.90;99.90
21035;DHT22;10676;50.848;3.272;2023-06-14T04:29:20;19.20;99.90
21035;DHT22;10676;50.848;3.272;2023-06-14T04:31:46;19.60;99.90
21035;DHT22;10676;50.848;3.272;2023-06-14T04:34:12;19.90;99.90
21035;DHT22;10676;50.848;3.272;2023-06-14T04:36:44;20.30;99.90
21035;DHT22;10676;50.848;3.272;2023-06-14T04:39:19;20.60;99.90
21035;DHT22;10676;50.848;3.272;2023-06-14T04:41:45;21.00;99.90
21035;DHT22;10676;50.848;3.272;2023-06-14T04:44:10;21.30;99.90
21035;DHT22;10676;50.848;3.272;2023-06-14T04:46:38;21.60;99.90
21035;DHT22;10676;50.848;3.272;2023-06-14T04:49:17;22.00;99.90
21035;DHT22;10676;50.848;3.272;2023-06-14T04:51:46;22.20;99.90
21035;DHT22;10676;50.848;3.272;2023-06-14T04:54:16;22.50;99.90
21035;DHT22;10676;50.848;3.272;2023-06-14T04:56:44;22.80;99.90
21035;DHT22;10676;50.848;3.272;2023-06-14T04:59:10;23.10;99.90
21035;DHT22;10676;50.848;3.272;2023-06-14T05:01:40;23.40;99.90
21035;DHT22;10676;50.848;3.272;2023-06-14T05:04:06;23.80;99.90
21035;DHT22;10676;50.848;3.272;2023-06-14T05:06:32;24.10;99.90
21035;DHT22;10676;50.848;3.272;2023-06-14T05:08:58;24.40;99.90
21035;DHT22;10676;50.848;3.272;2023-06-14T05:11:24;24.80;99.90
21035;DHT22;10676;50.848;3.272;2023-06-14T05:13:52;25.20;99.90
21035;DHT22;10676;50.848;3.272;2023-06-14T05:16:18;25.60;99.90
21035;DHT22;10676;50.848;3.272;2023-06-14T05:18:45;25.90;99.00
21035;DHT22;10676;50.848;3.272;2023-06-14T05:21:13;26.10;97.50
21035;DHT22;10676;50.848;3.272;2023-06-14T05:23:43;26.20;96.20
21035;DHT22;10676;50.848;3.272;2023-06-14T05:26:10;26.40;94.90
21035;DHT22;10676;50.848;3.272;2023-06-14T05:28:35;26.60;93.50
21035;DHT22;10676;50.848;3.272;2023-06-14T05:31:02;26.90;92.40
21035;DHT22;10676;50.848;3.272;2023-06-14T05:33:27;27.10;91.10
21035;DHT22;10676;50.848;3.272;2023-06-14T05:35:55;27.20;89.90
21035;DHT22;10676;50.848;3.272;2023-06-14T05:38:21;27.40;88.10
21035;DHT22;10676;50.848;3.272;2023-06-14T05:40:47;27.50;86.20
21035;DHT22;10676;50.848;3.272;2023-06-14T05:43:13;27.60;84.90
21035;DHT22;10676;50.848;3.272;2023-06-14T05:45:39;27.80;82.60
21035;DHT22;10676;50.848;3.272;2023-06-14T05:48:05;27.90;81.20
21035;DHT22;10676;50.848;3.272;2023-06-14T05:50:31;28.00;80.00
21035;DHT22;10676;50.848;3.272;2023-06-14T05:52:57;28.20;79.00
21035;DHT22;10676;50.848;3.272;2023-06-14T05:55:24;28.50;76.90
21035;DHT22;10676;50.848;3.272;2023-06-14T05:57:50;28.90;75.30
21035;DHT22;10676;50.848;3.272;2023-06-14T06:00:16;29.10;73.60
21035;DHT22;10676;50.848;3.272;2023-06-14T06:02:43;29.40;71.30
21035;DHT22;10676;50.848;3.272;2023-06-14T06:05:13;29.70;69.30
21035;DHT22;10676;50.848;3.272;2023-06-14T06:07:39;29.90;67.70
21035;DHT22;10676;50.848;3.272;2023-06-14T06:10:06;29.90;66.10
21035;DHT22;10676;50.848;3.272;2023-06-14T06:12:41;30.20;64.70
21035;DHT22;10676;50.848;3.272;2023-06-14T06:15:07;30.60;64.00
21035;DHT22;10676;50.848;3.272;2023-06-14T06:17:33;30.80;62.30
21035;DHT22;10676;50.848;3.272;2023-06-14T06:20:00;31.20;60.60
21035;DHT22;10676;50.848;3.272;2023-06-14T06:22:26;31.60;59.40
21035;DHT22;10676;50.848;3.272;2023-06-14T06:24:51;32.00;58.60
21035;DHT22;10676;50.848;3.272;2023-06-14T06:27:17;32.30;57.20
21035;DHT22;10676;50.848;3.272;2023-06-14T06:29:44;32.10;56.40
21035;DHT22;10676;50.848;3.272;2023-06-14T06:32:10;32.40;55.60
21035;DHT22;10676;50.848;3.272;2023-06-14T06:34:35;32.60;54.40
21035;DHT22;10676;50.848;3.272;2023-06-14T06:37:01;32.80;54.00
21035;DHT22;10676;50.848;3.272;2023-06-14T06:39:27;32.90;53.00
21035;DHT22;10676;50.848;3.272;2023-06-14T06:41:52;33.10;52.00
21035;DHT22;10676;50.848;3.272;2023-06-14T06:44:18;33.10;51.20
21035;DHT22;10676;50.848;3.272;2023-06-14T06:46:44;33.10;51.60
21035;DHT22;10676;50.848;3.272;2023-06-14T06:49:10;33.10;51.10
21035;DHT22;10676;50.848;3.272;2023-06-14T06:51:37;33.20;50.20
21035;DHT22;10676;50.848;3.272;2023-06-14T06:54:03;33.30;49.80
21035;DHT22;10676;50.848;3.272;2023-06-14T06:56:29;33.40;49.70
21035;DHT22;10676;50.848;3.272;2023-06-14T06:58:54;33.50;49.90
21035;DHT22;10676;50.848;3.272;2023-06-14T07:01:20;33.60;48.70
21035;DHT22;10676;50.848;3.272;2023-06-14T07:03:46;33.70;48.50
21035;DHT22;10676;50.848;3.272;2023-06-14T07:06:12;33.90;48.50
21035;DHT22;10676;50.848;3.272;2023-06-14T07:08:37;34.30;47.40
21035;DHT22;10676;50.848;3.272;2023-06-14T07:11:06;34.60;46.40
21035;DHT22;10676;50.848;3.272;2023-06-14T07:13:32;34.70;45.90
21035;DHT22;10676;50.848;3.272;2023-06-14T07:15:59;34.70;45.90
21035;DHT22;10676;50.848;3.272;2023-06-14T07:18:27;34.80;45.20
21035;DHT22;10676;50.848;3.272;2023-06-14T07:20:53;34.80;45.40
21035;DHT22;10676;50.848;3.272;2023-06-14T07:23:20;34.90;45.50
21035;DHT22;10676;50.848;3.272;2023-06-14T07:25:46;35.20;44.90
21035;DHT22;10676;50.848;3.272;2023-06-14T07:28:12;35.60;44.00
21035;DHT22;10676;50.848;3.272;2023-06-14T07:30:37;36.00;42.60
21035;DHT22;10676;50.848;3.272;2023-06-14T07:33:03;36.30;41.90
21035;DHT22;10676;50.848;3.272;2023-06-14T07:35:29;36.60;41.10
21035;DHT22;10676;50.848;3.272;2023-06-14T07:37:54;36.70;41.00
21035;DHT22;10676;50.848;3.272;2023-06-14T07:40:20;36.60;40.70
21035;DHT22;10676;50.848;3.272;2023-06-14T07:42:46;36.50;40.70
21035;DHT22;10676;50.848;3.272;2023-06-14T07:45:15;36.50;40.20
21035;DHT22;10676;50.848;3.272;2023-06-14T07:47:40;36.60;39.80
21035;DHT22;10676;50.848;3.272;2023-06-14T07:50:06;36.60;39.90
21035;DHT22;10676;50.848;3.272;2023-06-14T07:52:32;36.50;40.00
21035;DHT22;10676;50.848;3.272;2023-06-14T07:54:58;36.60;40.20
21035;DHT22;10676;50.848;3.272;2023-06-14T07:57:23;36.80;40.00
21035;DHT22;10676;50.848;3.272;2023-06-14T07:59:49;37.20;39.50
21035;DHT22;10676;50.848;3.272;2023-06-14T08:02:15;37.60;37.90
21035;DHT22;10676;50.848;3.272;2023-06-14T08:04:41;37.80;37.40
21035;DHT22;10676;50.848;3.272;2023-06-14T08:07:07;38.00;37.30
21035;DHT22;10676;50.848;3.272;2023-06-14T08:09:34;38.10;36.90
21035;DHT22;10676;50.848;3.272;2023-06-14T08:12:00;38.20;36.50
21035;DHT22;10676;50.848;3.272;2023-06-14T08:14:25;38.10;36.00
21035;DHT22;10676;50.848;3.272;2023-06-14T08:16:51;38.20;36.10
21035;DHT22;10676;50.848;3.272;2023-06-14T08:19:17;38.40;35.80
21035;DHT22;10676;50.848;3.272;2023-06-14T08:21:43;38.50;35.00
21035;DHT22;10676;50.848;3.272;2023-06-14T08:24:11;38.60;35.30
21035;DHT22;10676;50.848;3.272;2023-06-14T08:26:38;38.80;34.60
21035;DHT22;10676;50.848;3.272;2023-06-14T08:29:04;39.00;34.50
21035;DHT22;10676;50.848;3.272;2023-06-14T08:31:32;39.20;34.40
21035;DHT22;10676;50.848;3.272;2023-06-14T08:33:58;39.40;33.50
21035;DHT22;10676;50.848;3.272;2023-06-14T08:36:24;39.60;32.90
21035;DHT22;10676;50.848;3.272;2023-06-14T08:38:49;39.60;32.60
21035;DHT22;10676;50.848;3.272;2023-06-14T08:41:20;39.60;32.30
21035;DHT22;10676;50.848;3.272;2023-06-14T08:43:47;39.60;32.10
21035;DHT22;10676;50.848;3.272;2023-06-14T08:46:15;39.50;31.80
21035;DHT22;10676;50.848;3.272;2023-06-14T08:48:48;39.50;32.10
21035;DHT22;10676;50.848;3.272;2023-06-14T08:51:18;39.50;31.70
21035;DHT22;10676;50.848;3.272;2023-06-14T08:53:44;39.70;31.50
21035;DHT22;10676;50.848;3.272;2023-06-14T08:56:11;39.60;30.80
21035;DHT22;10676;50.848;3.272;2023-06-14T08:58:43;39.50;31.50
21035;DHT22;10676;50.848;3.272;2023-06-14T09:01:11;39.70;31.70
21035;DHT22;10676;50.848;3.272;2023-06-14T09:03:42;40.00;31.50
21035;DHT22;10676;50.848;3.272;2023-06-14T09:06:09;40.10;30.40
21035;DHT22;10676;50.848;3.272;2023-06-14T09:08:43;40.10;29.90
21035;DHT22;10676;50.848;3.272;2023-06-14T09:11:14;40.00;29.70
21035;DHT22;10676;50.848;3.272;2023-06-14T09:13:41;39.90;29.80
21035;DHT22;10676;50.848;3.272;2023-06-14T09:16:07;39.80;29.80
21035;DHT22;10676;50.848;3.272;2023-06-14T09:18:37;39.80;29.70
21035;DHT22;10676;50.848;3.272;2023-06-14T09:21:07;39.70;29.20
21035;DHT22;10676;50.848;3.272;2023-06-14T09:23:45;39.30;29.30
21035;DHT22;10676;50.848;3.272;2023-06-14T09:26:19;39.20;29.40
21035;DHT22;10676;50.848;3.272;2023-06-14T09:28:50;39.30;29.60
21035;DHT22;10676;50.848;3.272;2023-06-14T09:31:20;39.30;29.80
21035;DHT22;10676;50.848;3.272;2023-06-14T09:33:50;39.30;29.40
21035;DHT22;10676;50.848;3.272;2023-06-14T09:36:22;39.30;29.70
21035;DHT22;10676;50.848;3.272;2023-06-14T09:39:06;39.50;29.30
21035;DHT22;10676;50.848;3.272;2023-06-14T09:41:35;39.90;29.50
21035;DHT22;10676;50.848;3.272;2023-06-14T09:44:02;40.00;29.10
21035;DHT22;10676;50.848;3.272;2023-06-14T09:46:28;40.20;28.50
21035;DHT22;10676;50.848;3.272;2023-06-14T09:48:55;40.10;28.50
21035;DHT22;10676;50.848;3.272;2023-06-14T09:51:23;40.00;28.70
21035;DHT22;10676;50.848;3.272;2023-06-14T09:53:49;39.80;28.70
21035;DHT22;10676;50.848;3.272;2023-06-14T09:56:27;39.70;28.80
21035;DHT22;10676;50.848;3.272;2023-06-14T09:58:56;39.70;28.60
21035;DHT22;10676;50.848;3.272;2023-06-14T10:01:26;39.70;28.40
21035;DHT22;10676;50.848;3.272;2023-06-14T10:04:06;39.60;28.60
21035;DHT22;10676;50.848;3.272;2023-06-14T10:06:32;39.60;28.40
21035;DHT22;10676;50.848;3.272;2023-06-14T10:09:04;39.50;28.50
21035;DHT22;10676;50.848;3.272;2023-06-14T10:11:33;39.60;28.50
21035;DHT22;10676;50.848;3.272;2023-06-14T10:14:02;39.60;28.40
21035;DHT22;10676;50.848;3.272;2023-06-14T10:17:17;39.80;28.50
21035;DHT22;10676;50.848;3.272;2023-06-14T10:19:22;40.00;28.40
21035;DHT22;10676;50.848;3.272;2023-06-14T10:22:01;40.00;29.00
21035;DHT22;10676;50.848;3.272;2023-06-14T10:24:40;40.30;28.30
21035;DHT22;10676;50.848;3.272;2023-06-14T10:27:07;40.70;28.10
21035;DHT22;10676;50.848;3.272;2023-06-14T10:32:25;41.10;27.70
21035;DHT22;10676;50.848;3.272;2023-06-14T10:35:01;41.10;27.00
21035;DHT22;10676;50.848;3.272;2023-06-14T10:37:27;41.10;27.20
21035;DHT22;10676;50.848;3.272;2023-06-14T10:39:53;41.20;27.10
21035;DHT22;10676;50.848;3.272;2023-06-14T10:42:19;41.30;27.10
21035;DHT22;10676;50.848;3.272;2023-06-14T10:44:49;41.20;26.90
21035;DHT22;10676;50.848;3.272;2023-06-14T10:49:52;41.00;27.10
21035;DHT22;10676;50.848;3.272;2023-06-14T10:52:22;41.10;26.90
21035;DHT22;10676;50.848;3.272;2023-06-14T10:55:09;41.30;27.20
21035;DHT22;10676;50.848;3.272;2023-06-14T10:57:37;41.40;27.20
21035;DHT22;10676;50.848;3.272;2023-06-14T11:00:05;41.30;26.80
21035;DHT22;10676;50.848;3.272;2023-06-14T11:05:29;41.30;27.50
21035;DHT22;10676;50.848;3.272;2023-06-14T11:10:46;41.70;26.80
21035;DHT22;10676;50.848;3.272;2023-06-14T11:13:12;41.70;26.60
21035;DHT22;10676;50.848;3.272;2023-06-14T11:15:38;41.70;26.30
21035;DHT22;10676;50.848;3.272;2023-06-14T11:18:08;41.70;26.60
21035;DHT22;10676;50.848;3.272;2023-06-14T11:20:37;41.60;26.50
21035;DHT22;10676;50.848;3.272;2023-06-14T11:23:03;41.60;26.50
21035;DHT22;10676;50.848;3.272;2023-06-14T11:25:30;41.50;26.60
21035;DHT22;10676;50.848;3.272;2023-06-14T11:27:56;41.70;26.70
21035;DHT22;10676;50.848;3.272;2023-06-14T11:30:23;41.80;26.40
21035;DHT22;10676;50.848;3.272;2023-06-14T11:32:49;41.70;26.30
21035;DHT22;10676;50.848;3.272;2023-06-14T11:35:16;41.80;26.70
21035;DHT22;10676;50.848;3.272;2023-06-14T11:37:43;41.90;25.90
21035;DHT22;10676;50.848;3.272;2023-06-14T11:40:10;42.20;25.70
21035;DHT22;10676;50.848;3.272;2023-06-14T11:42:38;42.20;25.20
21035;DHT22;10676;50.848;3.272;2023-06-14T11:45:06;42.00;25.40
21035;DHT22;10676;50.848;3.272;2023-06-14T11:47:33;42.00;25.70
21035;DHT22;10676;50.848;3.272;2023-06-14T11:50:00;42.00;25.50
21035;DHT22;10676;50.848;3.272;2023-06-14T11:52:26;42.20;25.70
21035;DHT22;10676;50.848;3.272;2023-06-14T11:54:52;42.40;25.70
21035;DHT22;10676;50.848;3.272;2023-06-14T11:57:18;42.60;26.60
21035;DHT22;10676;50.848;3.272;2023-06-14T11:59:44;42.60;26.50
21035;DHT22;10676;50.848;3.272;2023-06-14T12:02:14;42.60;25.50
21035;DHT22;10676;50.848;3.272;2023-06-14T12:04:41;42.30;25.80
21035;DHT22;10676;50.848;3.272;2023-06-14T12:07:14;42.10;26.20
21035;DHT22;10676;50.848;3.272;2023-06-14T12:10:04;42.00;26.10
21035;DHT22;10676;50.848;3.272;2023-06-14T12:12:35;42.00;26.20
21035;DHT22;10676;50.848;3.272;2023-06-14T12:15:03;42.00;26.30
21035;DHT22;10676;50.848;3.272;2023-06-14T12:17:32;42.10;26.40
21035;DHT22;10676;50.848;3.272;2023-06-14T12:19:58;42.20;26.30
21035;DHT22;10676;50.848;3.272;2023-06-14T12:22:23;42.00;26.40
21035;DHT22;10676;50.848;3.272;2023-06-14T12:24:49;41.50;26.40
21035;DHT22;10676;50.848;3.272;2023-06-14T12:27:16;41.10;26.80
21035;DHT22;10676;50.848;3.272;2023-06-14T12:29:44;40.80;26.80
21035;DHT22;10676;50.848;3.272;2023-06-14T12:32:10;40.60;27.10
21035;DHT22;10676;50.848;3.272;2023-06-14T12:34:36;40.50;27.40
21035;DHT22;10676;50.848;3.272;2023-06-14T12:37:02;40.60;27.50
21035;DHT22;10676;50.848;3.272;2023-06-14T12:39:31;40.50;27.70
21035;DHT22;10676;50.848;3.272;2023-06-14T12:41:58;40.40;27.50
21035;DHT22;10676;50.848;3.272;2023-06-14T12:44:23;40.10;27.80
21035;DHT22;10676;50.848;3.272;2023-06-14T12:46:49;39.80;28.40
21035;DHT22;10676;50.848;3.272;2023-06-14T12:49:16;39.80;28.40
21035;DHT22;10676;50.848;3.272;2023-06-14T12:51:42;39.80;28.00
21035;DHT22;10676;50.848;3.272;2023-06-14T12:54:08;39.70;28.40
21035;DHT22;10676;50.848;3.272;2023-06-14T12:56:34;39.50;28.70
21035;DHT22;10676;50.848;3.272;2023-06-14T12:59:00;39.60;28.80
21035;DHT22;10676;50.848;3.272;2023-06-14T13:01:26;39.60;28.60
21035;DHT22;10676;50.848;3.272;2023-06-14T13:03:51;39.70;28.50
21035;DHT22;10676;50.848;3.272;2023-06-14T13:06:21;39.70;28.60
21035;DHT22;10676;50.848;3.272;2023-06-14T13:08:50;39.70;29.00
21035;DHT22;10676;50.848;3.272;2023-06-14T13:11:16;39.60;29.20
21035;DHT22;10676;50.848;3.272;2023-06-14T13:13:41;39.60;29.00
21035;DHT22;10676;50.848;3.272;2023-06-14T13:16:07;39.40;29.20
21035;DHT22;10676;50.848;3.272;2023-06-14T13:18:33;39.30;29.40
21035;DHT22;10676;50.848;3.272;2023-06-14T13:20:59;39.10;29.00
21035;DHT22;10676;50.848;3.272;2023-06-14T13:23:26;39.00;29.10
21035;DHT22;10676;50.848;3.272;2023-06-14T13:25:52;39.00;29.50
21035;DHT22;10676;50.848;3.272;2023-06-14T13:28:17;39.00;29.50
21035;DHT22;10676;50.848;3.272;2023-06-14T13:30:43;39.00;29.60
21035;DHT22;10676;50.848;3.272;2023-06-14T13:33:09;39.00;28.90
21035;DHT22;10676;50.848;3.272;2023-06-14T13:35:35;39.10;28.90
21035;DHT22;10676;50.848;3.272;2023-06-14T13:38:01;39.00;28.40
21035;DHT22;10676;50.848;3.272;2023-06-14T13:40:27;38.90;29.00
21035;DHT22;10676;50.848;3.272;2023-06-14T13:42:52;38.80;28.90
21035;DHT22;10676;50.848;3.272;2023-06-14T13:45:18;39.00;28.70
21035;DHT22;10676;50.848;3.272;2023-06-14T13:47:44;39.10;29.50
21035;DHT22;10676;50.848;3.272;2023-06-14T13:50:10;39.30;29.10
21035;DHT22;10676;50.848;3.272;2023-06-14T13:52:36;39.60;28.10
21035;DHT22;10676;50.848;3.272;2023-06-14T13:55:02;39.60;28.10
21035;DHT22;10676;50.848;3.272;2023-06-14T13:57:27;39.40;28.60
21035;DHT22;10676;50.848;3.272;2023-06-14T13:59:53;39.30;28.70
21035;DHT22;10676;50.848;3.272;2023-06-14T14:02:21;39.20;28.50
21035;DHT22;10676;50.848;3.272;2023-06-14T14:04:46;38.90;28.50
21035;DHT22;10676;50.848;3.272;2023-06-14T14:07:18;38.50;28.60
21035;DHT22;10676;50.848;3.272;2023-06-14T14:09:45;38.20;28.40
21035;DHT22;10676;50.848;3.272;2023-06-14T14:12:11;37.90;28.80
21035;DHT22;10676;50.848;3.272;2023-06-14T14:14:37;37.60;29.40
21035;DHT22;10676;50.848;3.272;2023-06-14T14:17:03;37.20;29.60
21035;DHT22;10676;50.848;3.272;2023-06-14T14:19:29;37.00;29.70
21035;DHT22;10676;50.848;3.272;2023-06-14T14:21:55;36.90;30.60
21035;DHT22;10676;50.848;3.272;2023-06-14T14:24:20;37.10;30.20
21035;DHT22;10676;50.848;3.272;2023-06-14T14:26:46;37.30;29.80
21035;DHT22;10676;50.848;3.272;2023-06-14T14:29:16;37.50;29.80
21035;DHT22;10676;50.848;3.272;2023-06-14T14:31:42;37.50;29.30
21035;DHT22;10676;50.848;3.272;2023-06-14T14:34:08;37.50;29.60
21035;DHT22;10676;50.848;3.272;2023-06-14T14:36:33;37.40;30.00
21035;DHT22;10676;50.848;3.272;2023-06-14T14:39:05;37.20;30.00
21035;DHT22;10676;50.848;3.272;2023-06-14T14:41:32;36.90;30.80
21035;DHT22;10676;50.848;3.272;2023-06-14T14:43:58;36.80;30.90
21035;DHT22;10676;50.848;3.272;2023-06-14T14:46:26;36.60;30.70
21035;DHT22;10676;50.848;3.272;2023-06-14T14:48:52;36.70;30.90
21035;DHT22;10676;50.848;3.272;2023-06-14T14:51:18;36.90;30.80
21035;DHT22;10676;50.848;3.272;2023-06-14T14:53:43;37.20;30.50
21035;DHT22;10676;50.848;3.272;2023-06-14T14:56:09;37.40;30.50
21035;DHT22;10676;50.848;3.272;2023-06-14T14:58:35;37.50;30.20
21035;DHT22;10676;50.848;3.272;2023-06-14T15:01:00;37.60;30.00
21035;DHT22;10676;50.848;3.272;2023-06-14T15:03:26;37.60;29.90
21035;DHT22;10676;50.848;3.272;2023-06-14T15:05:51;37.50;30.00
21035;DHT22;10676;50.848;3.272;2023-06-14T15:08:17;37.50;30.10
21035;DHT22;10676;50.848;3.272;2023-06-14T15:10:43;37.60;30.30
21035;DHT22;10676;50.848;3.272;2023-06-14T15:13:09;37.70;30.30
21035;DHT22;10676;50.848;3.272;2023-06-14T15:15:35;37.90;30.20
21035;DHT22;10676;50.848;3.272;2023-06-14T15:18:01;37.90;30.10
21035;DHT22;10676;50.848;3.272;2023-06-14T15:20:27;37.70;30.30
21035;DHT22;10676;50.848;3.272;2023-06-14T15:22:54;37.50;30.40
21035;DHT22;10676;50.848;3.272;2023-06-14T15:25:25;37.20;30.80
21035;DHT22;10676;50.848;3.272;2023-06-14T15:27:51;37.10;31.20
21035;DHT22;10676;50.848;3.272;2023-06-14T15:30:17;37.00;31.30
21035;DHT22;10676;50.848;3.272;2023-06-14T15:32:42;37.10;31.00
21035;DHT22;10676;50.848;3.272;2023-06-14T15:35:08;37.20;30.70
21035;DHT22;10676;50.848;3.272;2023-06-14T15:37:34;37.20;30.70
21035;DHT22;10676;50.848;3.272;2023-06-14T15:39:59;37.20;30.00
21035;DHT22;10676;50.848;3.272;2023-06-14T15:42:25;37.10;30.60
21035;DHT22;10676;50.848;3.272;2023-06-14T15:44:51;36.80;30.90